Station Historical Data
Daily Summary for November 27, 2017 Units:  Metric    English   Both
« Previous Day
Next Day »
Daily Weekly Monthly Yearly Custom
  High: Low: Average:
Temperature: 16.7 °C 0.6 °C 8.2 °C
Dew Point: 1.6 °C -3.3 °C -1 °C
Humidity: 84% 26% 56%
Wind Speed: 5.6km/h 0km/h 1.1km/h
Wind Gust: 5.6km/h - -
Wind- - WSW
Pressure: 1025.3 hPa 1021.9 hPa -
Precipitation: 0 mm    
Historical Graphs
 
 
Tabular Data for November 27, 2017
Time Temperature Dew Point Pressure Wind Wind Speed Wind Gust Humidity Rainfall Rate (Hourly) Conditions
00:03 4.8 °C -0.8 °C 1022.2 hPa Calm     67% 0 mm CLR
00:08 4.8 °C -1.1 °C 1022.2 hPa Calm     66% 0 mm CLR
00:13 4.8 °C -0.8 °C 1022.6 hPa Calm     67% 0 mm CLR
00:18 4.7 °C -0.7 °C 1022.6 hPa Calm     68% 0 mm CLR
00:23 4.6 °C -0.7 °C 1022.6 hPa Calm     69% 0 mm CLR
00:28 4.6 °C -0.8 °C 1022.6 hPa Calm     68% 0 mm CLR
00:34 4.6 °C -1 °C 1022.6 hPa Calm     67% 0 mm CLR
00:39 4.5 °C -0.3 °C 1022.6 hPa Calm     71% 0 mm CLR
00:44 4.3 °C -0.7 °C 1022.2 hPa Calm     70% 0 mm CLR
00:49 4.3 °C -0.7 °C 1022.2 hPa NE 1.9 km/h 1.9 km/h 70% 0 mm CLR
00:54 4.5 °C -1.1 °C 1022.2 hPa NE 1.9 km/h   67% 0 mm CLR
00:59 4.8 °C -0.8 °C 1022.2 hPa NE 1.9 km/h   67% 0 mm CLR
01:04 4.8 °C -1.4 °C 1022.2 hPa Calm     64% 0 mm CLR
01:09 5 °C -1.3 °C 1022.2 hPa Calm     64% 0 mm CLR
01:14 5.1 °C -1.2 °C 1022.2 hPa Calm     64% 0 mm CLR
01:19 5.1 °C -1.2 °C 1022.2 hPa Calm     64% 0 mm CLR
01:25 5.1 °C -1.2 °C 1022.2 hPa Calm     64% 0 mm CLR
01:30 5 °C -1.3 °C 1022.2 hPa NE 1.9 km/h   64% 0 mm CLR
01:35 5 °C -1.3 °C 1022.2 hPa NE 1.9 km/h   64% 0 mm CLR
01:40 5 °C -1.3 °C 1022.2 hPa Calm     64% 0 mm CLR
01:45 4.9 °C -1.5 °C 1022.2 hPa NE 1.9 km/h   63% 0 mm CLR
01:50 5.1 °C -1.4 °C 1021.9 hPa NE 1.9 km/h 1.9 km/h 63% 0 mm CLR
01:55 5.2 °C -1.7 °C 1021.9 hPa NE 1.9 km/h   61% 0 mm CLR
02:00 5.3 °C -1.8 °C 1022.2 hPa ENE 1.9 km/h   60% 0 mm CLR
02:05 5.4 °C -2.2 °C 1021.9 hPa East 1.9 km/h   58% 0 mm CLR
02:10 5.4 °C -1.9 °C 1021.9 hPa East 1.9 km/h   59% 0 mm CLR
02:15 5.3 °C -1.9 °C 1021.9 hPa Calm     60% 0 mm CLR
02:20 5.2 °C -1.7 °C 1021.9 hPa Calm     61% 0 mm CLR
02:25 5 °C -1.9 °C 1022.2 hPa East 1.9 km/h   61% 0 mm CLR
02:30 4.9 °C -1.9 °C 1022.2 hPa East 1.9 km/h   61% 0 mm CLR
02:36 4.8 °C -2.1 °C 1022.2 hPa Calm     61% 0 mm CLR
02:41 4.8 °C -1.9 °C 1022.2 hPa Calm     62% 0 mm CLR
02:46 4.7 °C -2 °C 1022.2 hPa Calm     62% 0 mm CLR
02:51 4.7 °C -1.6 °C 1022.2 hPa Calm     64% 0 mm CLR
02:56 4.6 °C -1.9 °C 1022.2 hPa Calm     63% 0 mm CLR
03:01 4.6 °C -2.1 °C 1022.2 hPa Calm     62% 0 mm CLR
03:06 4.7 °C -2 °C 1022.2 hPa East 1.9 km/h   62% 0 mm CLR
03:11 4.6 °C -2.1 °C 1022.2 hPa East 1.9 km/h   62% 0 mm CLR
03:16 4.6 °C -2.1 °C 1022.2 hPa Calm     62% 0 mm CLR
03:21 4.7 °C -2.2 °C 1022.2 hPa East 1.9 km/h   61% 0 mm CLR
03:26 4.7 °C -2 °C 1022.2 hPa East 1.9 km/h   62% 0 mm CLR
03:31 4.6 °C -1.8 °C 1022.2 hPa East 1.9 km/h   63% 0 mm CLR
03:36 4.5 °C -1.9 °C 1022.2 hPa East 1.9 km/h   63% 0 mm CLR
03:42 4.6 °C -2.1 °C 1022.2 hPa East 1.9 km/h   62% 0 mm CLR
03:47 4.5 °C -1.9 °C 1022.2 hPa Calm     63% 0 mm CLR
03:52 4.4 °C -2 °C 1022.2 hPa Calm     63% 0 mm CLR
03:57 4.3 °C -1.7 °C 1022.2 hPa Calm     65% 0 mm CLR
04:02 4.2 °C -1.6 °C 1022.2 hPa Calm     66% 0 mm CLR
04:07 4.1 °C -1.7 °C 1022.2 hPa Calm     66% 0 mm CLR
04:12 4.1 °C -1.7 °C 1022.2 hPa Calm     66% 0 mm CLR
04:17 4 °C -1.6 °C 1022.2 hPa East 1.9 km/h   67% 0 mm CLR
04:22 4 °C -1.6 °C 1022.2 hPa East 1.9 km/h   67% 0 mm CLR
04:27 3.9 °C -1.6 °C 1022.6 hPa East 1.9 km/h   67% 0 mm CLR
04:32 3.8 °C -1.6 °C 1022.2 hPa East 1.9 km/h   68% 0 mm CLR
04:37 3.7 °C -1.7 °C 1022.2 hPa East 1.9 km/h   68% 0 mm CLR
04:42 3.6 °C -1.6 °C 1022.6 hPa Calm     69% 0 mm CLR
04:48 3.4 °C -1 °C 1022.6 hPa Calm     73% 0 mm CLR
04:53 2.9 °C -1.2 °C 1022.6 hPa Calm     74% 0 mm CLR
04:58 2.7 °C -1.3 °C 1022.6 hPa Calm     75% 0 mm CLR
05:03 2.4 °C -1.6 °C 1022.6 hPa Calm     75% 0 mm CLR
05:08 2.3 °C -1.5 °C 1022.6 hPa Calm     76% 0 mm CLR
05:13 2.2 °C -1.4 °C 1022.6 hPa Calm     77% 0 mm CLR
05:18 2.1 °C -1.6 °C 1022.9 hPa Calm     77% 0 mm CLR
05:23 2.1 °C -1.7 °C 1022.9 hPa Calm     76% 0 mm CLR
05:28 2.4 °C -1.7 °C 1022.9 hPa Calm     74% 0 mm CLR
05:33 2.4 °C -1.3 °C 1022.9 hPa Calm     76% 0 mm CLR
05:38 2.1 °C -1.5 °C 1022.9 hPa Calm     77% 0 mm CLR
05:43 1.9 °C -1.5 °C 1022.9 hPa Calm     78% 0 mm CLR
05:49 1.7 °C -1.7 °C 1023.2 hPa Calm     78% 0 mm CLR
05:54 1.7 °C -1.8 °C 1023.2 hPa Calm     78% 0 mm CLR
05:59 1.6 °C -1.9 °C 1023.2 hPa Calm     78% 0 mm CLR
06:04 1.6 °C -1.9 °C 1023.2 hPa Calm     78% 0 mm CLR
06:09 1.6 °C -1.9 °C 1023.2 hPa Calm     78% 0 mm CLR
06:14 1.6 °C -1.9 °C 1023.2 hPa Calm     78% 0 mm CLR
06:19 1.6 °C -1.9 °C 1023.2 hPa Calm     78% 0 mm CLR
06:24 1.6 °C -1.9 °C 1023.6 hPa Calm     78% 0 mm CLR
06:29 1.5 °C -1.7 °C 1023.6 hPa Calm     79% 0 mm CLR
06:34 1.4 °C -1.8 °C 1023.6 hPa Calm     79% 0 mm CLR
06:39 1.3 °C -1.9 °C 1023.6 hPa Calm     79% 0 mm CLR
06:44 1.2 °C -1.9 °C 1023.6 hPa Calm     80% 0 mm CLR
06:49 1.2 °C -1.9 °C 1023.9 hPa Calm     80% 0 mm CLR
06:54 1.1 °C -1.8 °C 1023.9 hPa Calm     81% 0 mm CLR
07:00 0.9 °C -1.9 °C 1023.9 hPa Calm     81% 0 mm CLR
07:05 0.8 °C -1.9 °C 1023.9 hPa Calm     82% 0 mm CLR
07:10 0.7 °C -2 °C 1023.9 hPa Calm     82% 0 mm CLR
07:15 0.7 °C -2.1 °C 1023.9 hPa Calm     82% 0 mm CLR
07:20 0.6 °C -1.9 °C 1024.3 hPa Calm     83% 0 mm CLR
07:25 0.7 °C -1.9 °C 1023.9 hPa Calm     83% 0 mm CLR
07:30 0.6 °C -1.8 °C 1023.9 hPa Calm     84% 0 mm CLR
07:35 0.6 °C -1.8 °C 1024.3 hPa Calm     84% 0 mm CLR
07:40 0.7 °C -1.7 °C 1024.3 hPa Calm     84% 0 mm CLR
07:45 0.7 °C -1.7 °C 1024.3 hPa Calm     84% 0 mm CLR
07:55 0.9 °C -1.7 °C 1024.3 hPa Calm     83% 0 mm CLR
08:01 1 °C -1.6 °C 1024.6 hPa Calm     83% 0 mm CLR
08:06 1.2 °C -1.2 °C 1024.6 hPa Calm     84% 0 mm CLR
08:11 1.3 °C -1.3 °C 1024.6 hPa Calm     83% 0 mm CLR
08:16 1.3 °C -1.2 °C 1024.6 hPa Calm     83% 0 mm CLR
08:21 1.4 °C -1.1 °C 1024.6 hPa Calm     83% 0 mm CLR
08:26 1.6 °C -0.8 °C 1024.6 hPa Calm     84% 0 mm CLR
08:31 1.8 °C -0.7 °C 1024.6 hPa Calm     83% 0 mm CLR
08:36 2.1 °C -0.9 °C 1024.6 hPa Calm     81% 0 mm CLR
08:41 2.4 °C -0.6 °C 1024.6 hPa Calm     81% 0 mm CLR
08:46 3 °C -0.1 °C 1024.6 hPa Calm     80% 0 mm CLR
08:51 3.5 °C 0.2 °C 1024.6 hPa Calm     79% 0 mm CLR
08:56 3.9 °C 0.2 °C 1024.6 hPa Calm     77% 0 mm CLR
09:01 4.4 °C 0.3 °C 1024.6 hPa Calm     75% 0 mm CLR
09:06 4.8 °C 0.6 °C 1024.6 hPa Calm     74% 0 mm CLR
09:12 5.1 °C 0.4 °C 1024.9 hPa Calm     72% 0 mm CLR
09:17 5.6 °C -0.3 °C 1024.9 hPa Calm     66% 0 mm CLR
09:22 6.1 °C -0.4 °C 1024.9 hPa Calm     63% 0 mm CLR
09:27 6.5 °C -0.5 °C 1024.9 hPa Calm     61% 0 mm CLR
09:32 6.9 °C -0.3 °C 1024.9 hPa Calm     60% 0 mm CLR
09:37 7.5 °C -0.7 °C 1024.9 hPa Calm     56% 0 mm CLR
09:42 7.9 °C 0.1 °C 1024.9 hPa Calm     58% 0 mm CLR
09:47 8.5 °C -0.3 °C 1025.3 hPa WNW 1.9 km/h   54% 0 mm CLR
09:52 8.9 °C -1 °C 1025.3 hPa WNW 1.9 km/h 1.9 km/h 50% 0 mm CLR
09:57 9.2 °C -0.4 °C 1025.3 hPa West 1.9 km/h 1.9 km/h 51% 0 mm CLR
10:03 9.5 °C -0.2 °C 1025.3 hPa West 1.9 km/h   51% 0 mm CLR
10:08 9.8 °C -0.4 °C 1025.3 hPa WNW 1.9 km/h   49% 0 mm CLR
10:13 10.4 °C -1 °C 1025.3 hPa WNW 1.9 km/h 1.9 km/h 45% 0 mm CLR
10:18 11.1 °C -1.3 °C 1025.3 hPa West 3.7 km/h   42% 0 mm CLR
10:23 11.9 °C -0.6 °C 1025.3 hPa West 3.7 km/h   42% 0 mm CLR
10:28 12.4 °C -1.5 °C 1025.3 hPa West 1.9 km/h   38% 0 mm CLR
10:33 12.8 °C -1.6 °C 1025.3 hPa WNW 1.9 km/h   37% 0 mm CLR
10:43 12.9 °C -3 °C 1025.3 hPa West 3.7 km/h 3.7 km/h 33% 0 mm CLR
10:48 13 °C -2.1 °C 1025.3 hPa West 3.7 km/h   35% 0 mm CLR
10:53 13.2 °C -2 °C 1024.9 hPa West 3.7 km/h 3.7 km/h 35% 0 mm CLR
10:56 13.2 °C -1.9 °C 1024.9 hPa WNW 3.7 km/h 3.7 km/h 35% 0 mm CLR
11:01 13.3 °C -2.7 °C 1024.9 hPa NW 3.7 km/h 3.7 km/h 33% 0 mm CLR
11:06 13.4 °C -2.1 °C 1024.9 hPa NW 3.7 km/h 3.7 km/h 34% 0 mm CLR
11:11 13.4 °C -1.4 °C 1024.9 hPa WNW 3.7 km/h 3.7 km/h 36% 0 mm CLR
11:16 13.4 °C -1.3 °C 1024.9 hPa West 5.6 km/h   36% 0 mm CLR
11:21 13.6 °C -2 °C 1024.9 hPa WNW 5.6 km/h 5.6 km/h 34% 0 mm CLR
11:26 13.4 °C -2.1 °C 1024.9 hPa West 5.6 km/h   34% 0 mm CLR
11:31 13.6 °C -2.8 °C 1024.9 hPa West 5.6 km/h 5.6 km/h 32% 0 mm CLR
11:36 13.9 °C -1.3 °C 1024.9 hPa WNW 3.7 km/h 3.7 km/h 35% 0 mm CLR
11:42 14.1 °C -2 °C 1024.9 hPa WNW 1.9 km/h   33% 0 mm CLR
11:47 14.2 °C -1.5 °C 1024.6 hPa WNW 3.7 km/h 3.7 km/h 34% 0 mm CLR
11:52 14.4 °C -1.7 °C 1024.6 hPa NW 3.7 km/h 3.7 km/h 33% 0 mm CLR
11:57 14.7 °C -1.9 °C 1024.6 hPa NW 5.6 km/h   32% 0 mm CLR
12:02 14.7 °C -1.8 °C 1024.6 hPa WNW 5.6 km/h   32% 0 mm CLR
12:07 14.7 °C -2.7 °C 1024.3 hPa WNW 3.7 km/h 3.7 km/h 30% 0 mm CLR
12:09 14.7 °C -2.3 °C 1024.3 hPa WNW 3.7 km/h 3.7 km/h 31% 0 mm CLR
12:14 14.8 °C -2.2 °C 1024.3 hPa NW 3.7 km/h 3.7 km/h 31% 0 mm CLR
12:19 14.9 °C -2.1 °C 1024.3 hPa NW 3.7 km/h 3.7 km/h 31% 0 mm CLR
12:24 14.8 °C -2.2 °C 1024.3 hPa WNW 3.7 km/h 3.7 km/h 31% 0 mm CLR
12:29 14.8 °C -2.7 °C 1024.3 hPa West 3.7 km/h 3.7 km/h 30% 0 mm CLR
12:34 15 °C -2.9 °C 1024.3 hPa NW 3.7 km/h 3.7 km/h 29% 0 mm CLR
12:39 15.3 °C -2.2 °C 1024.3 hPa NW 3.7 km/h 3.7 km/h 30% 0 mm CLR
12:44 15.4 °C -3 °C 1023.9 hPa WNW 3.7 km/h 3.7 km/h 28% 0 mm CLR
12:50 15.4 °C -1.6 °C 1023.9 hPa Calm   1.6 km/h 31% 0 mm CLR
12:55 15.7 °C -2.8 °C 1023.9 hPa Calm   4.8 km/h 28% 0 mm CLR
13:00 15.8 °C -2.2 °C 1023.9 hPa NNW 5.6 km/h 5.6 km/h 29% 0 mm CLR
13:05 16 °C -2.1 °C 1023.9 hPa NW 3.7 km/h 3.7 km/h 29% 0 mm CLR
13:10 16.3 °C -2.7 °C 1023.6 hPa NW 3.7 km/h 3.7 km/h 27% 0 mm CLR
13:15 16.4 °C -1.3 °C 1023.6 hPa NW 3.7 km/h 3.7 km/h 30% 0 mm CLR
13:20 16.4 °C -2.7 °C 1023.6 hPa NW 3.7 km/h 3.7 km/h 27% 0 mm CLR
13:25 16.2 °C -2.9 °C 1023.6 hPa NW 3.7 km/h 3.7 km/h 27% 0 mm CLR
13:30 16 °C -3 °C 1023.2 hPa NW 3.7 km/h 3.7 km/h 27% 0 mm CLR
13:35 15.9 °C -2.6 °C 1023.2 hPa WNW 3.7 km/h 3.7 km/h 28% 0 mm CLR
13:40 15.9 °C -3.1 °C 1023.2 hPa NW 3.7 km/h 3.7 km/h 27% 0 mm CLR
13:45 15.8 °C -2.7 °C 1023.2 hPa NW 3.7 km/h   28% 0 mm CLR
13:51 15.7 °C -2.3 °C 1023.2 hPa WNW 3.7 km/h   29% 0 mm CLR
13:56 15.8 °C -2.7 °C 1023.2 hPa WNW 3.7 km/h 3.7 km/h 28% 0 mm CLR
14:01 15.8 °C -3.2 °C 1022.9 hPa WNW 5.6 km/h 5.6 km/h 27% 0 mm CLR
14:06 15.8 °C -3.2 °C 1022.9 hPa WNW 5.6 km/h 5.6 km/h 27% 0 mm CLR
14:11 15.8 °C -3.2 °C 1022.9 hPa NW 3.7 km/h 3.7 km/h 27% 0 mm CLR
14:16 15.8 °C -2.2 °C 1022.6 hPa NW 3.7 km/h   29% 0 mm CLR
14:22 15.8 °C -3.2 °C 1022.6 hPa WNW 3.7 km/h 3.7 km/h 27% 0 mm CLR
14:27 15.9 °C -1.7 °C 1022.6 hPa NNW 1.9 km/h   30% 0 mm CLR
14:32 16.1 °C -2.5 °C 1022.6 hPa North 1.9 km/h 1.9 km/h 28% 0 mm CLR
14:37 16.2 °C -2.4 °C 1022.6 hPa NW 3.7 km/h   28% 0 mm CLR
14:42 16.4 °C -2.6 °C 1022.2 hPa WNW 3.7 km/h 3.7 km/h 27% 0 mm CLR
14:47 16.4 °C -2.6 °C 1022.2 hPa NW 3.7 km/h 3.7 km/h 27% 0 mm CLR
14:53 16.4 °C -2.6 °C 1022.2 hPa NNW 3.7 km/h   27% 0 mm CLR
14:58 16.7 °C -0.9 °C 1022.2 hPa NNW 3.7 km/h   30% 0 mm CLR
15:03 16.7 °C -2.9 °C 1022.2 hPa NW 3.7 km/h   26% 0 mm CLR
15:08 16.7 °C -2.4 °C 1022.2 hPa West 3.7 km/h 3.7 km/h 27% 0 mm CLR
15:13 16.5 °C -2.6 °C 1022.2 hPa WNW 3.7 km/h   27% 0 mm CLR
15:18 16.3 °C -2.7 °C 1022.2 hPa WNW 3.7 km/h   27% 0 mm CLR
15:23 16.2 °C -3.3 °C 1022.2 hPa West 3.7 km/h 3.7 km/h 26% 0 mm CLR
15:28 16.1 °C -2.4 °C 1022.2 hPa West 3.7 km/h   28% 0 mm CLR
15:33 16.1 °C -2.5 °C 1022.2 hPa West 3.7 km/h   28% 0 mm CLR
15:38 16.1 °C -2.5 °C 1022.2 hPa West 1.9 km/h 1.9 km/h 28% 0 mm CLR
15:43 16 °C -1.6 °C 1022.2 hPa West 1.9 km/h   30% 0 mm CLR
15:48 15.7 °C -2.8 °C 1022.2 hPa WNW 1.9 km/h   28% 0 mm CLR
15:54 15.7 °C -1.9 °C 1022.6 hPa NW 1.9 km/h   30% 0 mm CLR
15:59 15.6 °C -1.9 °C 1022.6 hPa WNW 1.9 km/h   30% 0 mm CLR
16:04 15.5 °C -1.6 °C 1022.6 hPa WNW 1.9 km/h   31% 0 mm FEW
16:09 15.3 °C -1.7 °C 1022.6 hPa Calm     31% 0 mm FEW
16:14 15.2 °C -1.9 °C 1022.6 hPa Calm     31% 0 mm FEW
16:19 15.1 °C -2.4 °C 1022.9 hPa WNW 1.9 km/h   30% 0 mm FEW
16:24 14.9 °C -1.3 °C 1022.9 hPa WNW 1.9 km/h   33% 0 mm FEW
16:29 14.6 °C -1.5 °C 1022.9 hPa WNW 1.9 km/h   33% 0 mm FEW
16:34 14.6 °C -0.7 °C 1022.9 hPa Calm     35% 0 mm FEW
16:39 14.3 °C -0.9 °C 1022.9 hPa Calm     35% 0 mm FEW
16:44 14.2 °C -1.1 °C 1022.9 hPa Calm     35% 0 mm FEW
16:49 14.1 °C -1.2 °C 1022.9 hPa Calm     35% 0 mm FEW
16:54 13.9 °C -0.9 °C 1022.9 hPa Calm     36% 0 mm FEW
16:59 13.8 °C -1 °C 1022.9 hPa Calm     36% 0 mm FEW
17:04 13.7 °C -1.6 °C 1022.9 hPa Calm     35% 0 mm FEW
17:10 13.6 °C -1.3 °C 1022.9 hPa Calm     36% 0 mm FEW
17:15 13.3 °C -1.1 °C 1022.9 hPa Calm     37% 0 mm FEW
17:20 13.2 °C -1.2 °C 1023.2 hPa Calm     37% 0 mm FEW
17:25 12.9 °C -0.7 °C 1022.9 hPa Calm     39% 0 mm FEW
17:30 12.7 °C -0.2 °C 1022.9 hPa Calm     41% 0 mm FEW
17:35 12.5 °C -0.8 °C 1023.2 hPa Calm     40% 0 mm FEW
17:40 12.4 °C -0.5 °C 1023.2 hPa Calm     41% 0 mm FEW
17:45 12.1 °C -0.1 °C 1023.2 hPa Calm     43% 0 mm FEW
17:50 11.8 °C -0.4 °C 1023.2 hPa Calm     43% 0 mm FEW
17:55 11.4 °C -0.1 °C 1023.2 hPa Calm     45% 0 mm FEW
18:01 11.1 °C -0.4 °C 1023.2 hPa Calm     45% 0 mm FEW
18:06 10.8 °C 0.2 °C 1023.6 hPa Calm     48% 0 mm CLR
18:11 10.5 °C -0.1 °C 1023.6 hPa Calm     48% 0 mm CLR
18:16 10.2 °C -0.1 °C 1023.6 hPa Calm     49% 0 mm CLR
18:21 10 °C 0.3 °C 1023.6 hPa Calm     51% 0 mm CLR
18:26 9.8 °C 0.7 °C 1023.6 hPa Calm     53% 0 mm CLR
18:31 9.6 °C 0.7 °C 1023.6 hPa Calm     54% 0 mm CLR
18:36 9.3 °C 0.5 °C 1023.6 hPa Calm     54% 0 mm CLR
18:41 9.2 °C 0.6 °C 1023.6 hPa Calm     55% 0 mm CLR
18:46 8.9 °C 0.6 °C 1023.6 hPa Calm     56% 0 mm CLR
18:51 8.8 °C 1 °C 1023.6 hPa Calm     58% 0 mm CLR
18:56 8.7 °C 0.7 °C 1023.9 hPa Calm     57% 0 mm CLR
19:01 8.7 °C 1.1 °C 1023.9 hPa Calm     59% 0 mm CLR
19:07 8.6 °C 1.1 °C 1023.9 hPa Calm     59% 0 mm CLR
19:12 8.4 °C 0.9 °C 1024.3 hPa Calm     59% 0 mm CLR
19:17 8.3 °C 1 °C 1024.3 hPa Calm     60% 0 mm CLR
19:22 8.2 °C 0.9 °C 1024.3 hPa Calm     60% 0 mm CLR
19:27 8.1 °C 1 °C 1024.3 hPa Calm     61% 0 mm CLR
19:32 7.9 °C 1.3 °C 1024.3 hPa Calm     63% 0 mm CLR
19:37 7.8 °C 1.2 °C 1024.3 hPa Calm     63% 0 mm CLR
19:42 7.7 °C 1.3 °C 1024.3 hPa Calm     64% 0 mm CLR
19:47 7.6 °C 1.6 °C 1024.3 hPa Calm     66% 0 mm CLR
19:52 7.6 °C 1.4 °C 1024.3 hPa Calm     65% 0 mm CLR
19:57 7.9 °C 1.5 °C 1024.3 hPa Calm     64% 0 mm CLR
20:02 7.8 °C 0.9 °C 1024.3 hPa Calm     62% 0 mm CLR
20:07 7.6 °C 0.8 °C 1024.3 hPa Calm     62% 0 mm CLR
20:13 7.4 °C 0.8 °C 1024.3 hPa Calm     63% 0 mm CLR
20:18 7.3 °C 0.7 °C 1024.6 hPa Calm     63% 0 mm CLR
20:23 7.2 °C 1.1 °C 1024.6 hPa Calm     65% 0 mm CLR
20:28 7.1 °C 0.9 °C 1024.6 hPa Calm     65% 0 mm CLR
20:33 7 °C 1.1 °C 1024.6 hPa Calm     66% 0 mm CLR
20:38 6.9 °C 1 °C 1024.6 hPa Calm     66% 0 mm CLR
20:43 6.9 °C 1.2 °C 1024.6 hPa Calm     67% 0 mm CLR
20:48 6.9 °C 0.6 °C 1024.6 hPa Calm     64% 0 mm CLR
20:53 6.9 °C 0.9 °C 1024.6 hPa Calm     66% 0 mm CLR
20:58 6.8 °C 0.4 °C 1024.6 hPa Calm     64% 0 mm CLR
21:03 6.8 °C 0.7 °C 1024.6 hPa Calm     65% 0 mm CLR
21:09 6.8 °C 0.9 °C 1024.9 hPa Calm     66% 0 mm CLR
21:14 6.8 °C 1.3 °C 1024.9 hPa Calm     68% 0 mm CLR
21:19 6.8 °C 1.3 °C 1024.9 hPa WNW 1.9 km/h   68% 0 mm CLR
21:24 6.7 °C 1.2 °C 1024.6 hPa NW 1.9 km/h   68% 0 mm CLR
21:29 6.6 °C 0.9 °C 1024.9 hPa Calm     67% 0 mm CLR
21:34 6.6 °C 0.9 °C 1024.9 hPa Calm     67% 0 mm CLR
21:39 6.5 °C 0.8 °C 1024.9 hPa Calm     67% 0 mm CLR
21:44 6.5 °C 1 °C 1024.9 hPa Calm     68% 0 mm CLR
21:49 6.5 °C 1 °C 1024.9 hPa Calm     68% 0 mm CLR
21:54 6.6 °C 0.7 °C 1024.9 hPa Calm     66% 0 mm CLR
21:59 6.7 °C 0.9 °C 1024.9 hPa Calm     67% 0 mm CLR
22:04 6.6 °C 0.7 °C 1024.9 hPa Calm     66% 0 mm CLR
22:10 6.5 °C 1 °C 1025.3 hPa Calm     68% 0 mm CLR
22:15 6.4 °C 0.7 °C 1025.3 hPa Calm     67% 0 mm CLR
22:20 6.3 °C 1.2 °C 1025.3 hPa Calm     70% 0 mm CLR
22:25 6.3 °C 0.6 °C 1025.3 hPa Calm     67% 0 mm CLR
22:30 6.5 °C 0.6 °C 1025.3 hPa Calm     66% 0 mm CLR
22:35 6.4 °C 0.6 °C 1024.9 hPa Calm     66% 0 mm CLR
22:40 6.5 °C 0.6 °C 1024.9 hPa Calm     66% 0 mm CLR
22:45 6.6 °C 0.7 °C 1024.9 hPa Calm     66% 0 mm CLR
22:50 6.6 °C 0.3 °C 1024.9 hPa Calm     64% 0 mm CLR
22:55 6.9 °C 0.3 °C 1024.9 hPa Calm     63% 0 mm CLR
23:00 7 °C 0.4 °C 1025.3 hPa Calm     63% 0 mm CLR
23:05 7.1 °C 0.3 °C 1025.3 hPa Calm     62% 0 mm CLR
23:11 7.1 °C 0.3 °C 1025.3 hPa Calm     62% 0 mm CLR
23:16 7.1 °C 0.5 °C 1025.3 hPa Calm     63% 0 mm CLR
23:21 6.8 °C 0.5 °C 1025.3 hPa Calm     64% 0 mm CLR
23:26 6.8 °C 0.9 °C 1025.3 hPa Calm     66% 0 mm CLR
23:31 6.6 °C 1.1 °C 1025.3 hPa Calm     68% 0 mm CLR
23:36 6.3 °C 1.2 °C 1025.3 hPa Calm     70% 0 mm CLR
23:41 6.1 °C 1 °C 1025.3 hPa Calm     70% 0 mm CLR
23:46 5.9 °C 1.1 °C 1025.3 hPa Calm     71% 0 mm CLR
23:51 5.7 °C 1.3 °C 1025.3 hPa Calm     73% 0 mm CLR
23:56 5.5 °C 1.1 °C 1025.3 hPa Calm     73% 0 mm CLR
Piedmont Bend
Compliments of Weather Underground - 4 mb